createdAt,value
2023-02-06T00:04:56.927Z,-2.20
2023-02-06T00:09:58.598Z,-2.17
2023-02-06T00:15:00.261Z,-2.20
2023-02-06T00:20:02.354Z,-2.32
2023-02-06T00:25:04.652Z,-2.20
2023-02-06T00:30:06.815Z,-2.13
2023-02-06T00:35:08.803Z,-2.37
2023-02-06T00:40:10.981Z,-2.38
2023-02-06T00:45:12.700Z,-2.56
2023-02-06T00:50:14.441Z,-2.35
2023-02-06T00:55:16.236Z,-2.48
2023-02-06T01:00:18.279Z,-2.49
2023-02-06T01:05:20.088Z,-2.56
2023-02-06T01:10:21.856Z,-2.62
2023-02-06T01:15:23.518Z,-2.67
2023-02-06T01:20:25.285Z,-2.59
2023-02-06T01:25:27.029Z,-2.60
2023-02-06T01:30:28.726Z,-2.55
2023-02-06T01:35:30.424Z,-2.62
2023-02-06T01:40:32.100Z,-2.65
2023-02-06T01:45:53.108Z,-2.68
2023-02-06T01:50:57.438Z,-2.81
2023-02-06T01:56:02.000Z,-2.56
2023-02-06T02:01:05.370Z,-2.94
2023-02-06T02:06:11.362Z,-2.86
2023-02-06T02:11:20.342Z,-2.95
2023-02-06T02:17:00.734Z,-2.88
2023-02-06T02:22:34.331Z,-2.92
2023-02-06T02:27:55.533Z,-2.92
2023-02-06T02:33:06.143Z,-2.79
2023-02-06T02:38:13.785Z,-2.86
2023-02-06T02:43:22.738Z,-2.76
2023-02-06T02:48:30.146Z,-2.87
2023-02-06T02:53:32.303Z,-3.00
2023-02-06T02:58:35.782Z,-3.24
2023-02-06T03:03:42.749Z,-3.15
2023-02-06T03:09:03.126Z,-2.95
2023-02-06T03:14:39.387Z,-2.97
2023-02-06T03:19:48.559Z,-3.13
2023-02-06T03:24:52.609Z,-3.36
2023-02-06T03:29:56.158Z,-3.30
2023-02-06T03:35:19.983Z,-3.37
2023-02-06T03:40:21.944Z,-3.22
2023-02-06T03:45:29.131Z,-3.37
2023-02-06T03:50:34.883Z,-3.40
2023-02-06T03:55:38.661Z,-3.27
2023-02-06T04:00:42.958Z,-3.61
2023-02-06T04:05:44.637Z,-3.63
2023-02-06T04:10:46.266Z,-3.44
2023-02-06T04:15:47.917Z,-3.63
2023-02-06T04:20:52.243Z,-3.42
2023-02-06T04:25:53.992Z,-3.61
2023-02-06T04:30:55.831Z,-3.40
2023-02-06T04:35:57.545Z,-3.56
2023-02-06T04:41:06.090Z,-3.52
2023-02-06T04:46:07.793Z,-3.57
2023-02-06T04:51:09.818Z,-3.46
2023-02-06T04:56:12.870Z,-3.44
2023-02-06T05:01:16.900Z,-3.48
2023-02-06T05:06:18.669Z,-3.71
2023-02-06T05:11:20.296Z,-3.81
2023-02-06T05:16:22.050Z,-3.71
2023-02-06T05:21:25.222Z,-3.87
2023-02-06T05:26:26.903Z,-3.89
2023-02-06T05:31:29.133Z,-3.73
2023-02-06T05:36:30.837Z,-3.72
2023-02-06T05:41:32.726Z,-3.54
2023-02-06T05:46:34.492Z,-3.77
2023-02-06T05:51:36.211Z,-3.61
2023-02-06T05:56:37.916Z,-3.58
2023-02-06T06:01:39.564Z,-3.59
2023-02-06T06:06:41.879Z,-3.74
2023-02-06T06:11:43.791Z,-3.64
2023-02-06T06:16:45.474Z,-3.53
2023-02-06T06:21:47.137Z,-3.60
2023-02-06T06:26:48.810Z,-3.46
2023-02-06T06:31:50.561Z,-3.52
2023-02-06T06:36:52.294Z,-3.53
2023-02-06T06:41:54.173Z,-3.54
2023-02-06T06:46:55.851Z,-3.41
2023-02-06T06:51:57.526Z,-3.53
2023-02-06T06:56:59.172Z,-3.50
2023-02-06T07:02:00.785Z,-3.48
2023-02-06T07:07:02.502Z,-3.66
2023-02-06T07:12:05.104Z,-3.58
2023-02-06T07:17:06.830Z,-3.58
2023-02-06T07:22:08.513Z,-3.37
2023-02-06T07:27:10.605Z,-3.37
2023-02-06T07:32:12.340Z,-3.33
2023-02-06T07:37:14.168Z,-3.23
2023-02-06T07:42:15.842Z,-3.31
2023-02-06T07:47:17.703Z,-3.42
2023-02-06T07:52:22.058Z,-3.35
2023-02-06T07:57:23.696Z,-3.12
2023-02-06T08:02:25.449Z,-3.29
2023-02-06T08:07:27.304Z,-3.50
2023-02-06T08:12:32.019Z,-3.22
2023-02-06T08:17:33.752Z,-3.25
2023-02-06T08:22:35.412Z,-3.15
2023-02-06T08:27:37.198Z,-3.04
2023-02-06T08:32:39.418Z,-2.89
2023-02-06T08:37:41.092Z,-2.91
2023-02-06T08:42:42.788Z,-3.11
2023-02-06T08:47:44.392Z,-2.82
2023-02-06T08:52:46.102Z,-2.95
2023-02-06T08:57:47.735Z,-2.71
2023-02-06T09:02:49.524Z,-2.76
2023-02-06T09:07:51.245Z,-2.73
2023-02-06T09:12:54.397Z,-2.74
2023-02-06T09:17:56.104Z,-2.65
2023-02-06T09:22:57.864Z,-2.62
2023-02-06T09:27:59.582Z,-2.74
2023-02-06T09:33:01.338Z,-2.53
2023-02-06T09:38:03.155Z,-2.36
2023-02-06T09:43:05.066Z,-2.41
2023-02-06T09:48:19.673Z,-2.56
2023-02-06T09:53:30.567Z,-2.32
2023-02-06T09:58:53.898Z,-2.24
2023-02-06T10:04:01.945Z,-2.49
2023-02-06T10:09:11.644Z,-2.12
2023-02-06T10:14:22.374Z,-2.35
2023-02-06T10:19:48.262Z,-2.18
2023-02-06T10:25:15.287Z,-2.00
2023-02-06T10:30:20.753Z,-1.85
2023-02-06T10:35:51.811Z,-1.64
2023-02-06T10:41:18.682Z,-1.78
2023-02-06T10:46:26.302Z,-1.90
2023-02-06T10:51:38.614Z,-1.75
2023-02-06T10:56:46.844Z,-1.79
2023-02-06T11:01:52.177Z,-1.60
2023-02-06T11:07:01.054Z,-1.70
2023-02-06T11:12:03.828Z,-1.79
2023-02-06T11:17:05.549Z,-1.57
2023-02-06T11:22:07.401Z,-1.64
2023-02-06T11:27:20.682Z,-1.64
2023-02-06T11:32:40.836Z,-1.38
2023-02-06T11:37:42.765Z,-1.46
2023-02-06T11:42:46.112Z,-1.38
2023-02-06T11:47:47.784Z,-1.22
2023-02-06T11:52:49.937Z,-1.06
2023-02-06T11:58:23.196Z,-1.14
2023-02-06T12:03:31.213Z,-0.98
2023-02-06T12:08:55.058Z,-0.64
2023-02-06T12:14:03.622Z,-0.69
2023-02-06T12:19:12.068Z,-0.98
2023-02-06T12:24:36.159Z,-1.28
2023-02-06T12:29:43.659Z,-0.92
2023-02-06T12:35:00.636Z,-0.69
2023-02-06T12:40:02.486Z,-0.85
2023-02-06T12:45:25.268Z,-0.77
2023-02-06T12:50:55.391Z,-0.63
2023-02-06T12:56:29.501Z,-0.71
2023-02-06T13:01:58.287Z,-0.72
2023-02-06T13:07:05.279Z,-1.28
2023-02-06T13:12:13.843Z,-1.06
2023-02-06T13:17:20.695Z,-1.06
2023-02-06T13:22:36.868Z,-0.88
2023-02-06T13:27:40.084Z,-0.84
2023-02-06T13:32:45.419Z,-0.66
2023-02-06T13:37:48.562Z,-0.68
2023-02-06T13:43:11.285Z,-0.91
2023-02-06T13:48:27.873Z,-0.84
2023-02-06T13:53:48.161Z,-0.80
2023-02-06T13:58:56.056Z,-0.62
2023-02-06T14:03:58.470Z,-0.57
2023-02-06T14:09:30.746Z,-0.37
2023-02-06T14:14:47.718Z,-0.70
2023-02-06T14:20:03.487Z,-0.75
2023-02-06T14:25:05.471Z,-0.85
2023-02-06T14:30:22.306Z,-0.90
2023-02-06T14:35:42.784Z,-0.81
2023-02-06T14:40:49.336Z,-0.78
2023-02-06T14:46:06.779Z,-0.92
2023-02-06T14:51:25.378Z,-0.89
2023-02-06T14:56:33.291Z,-0.91
2023-02-06T15:01:35.113Z,-1.04
2023-02-06T15:06:40.115Z,-1.00
2023-02-06T15:11:41.860Z,-1.13
2023-02-06T15:16:48.311Z,-1.15
2023-02-06T15:21:51.365Z,-1.12
2023-02-06T15:27:11.244Z,-1.24
2023-02-06T15:32:35.490Z,-1.36
2023-02-06T15:37:37.190Z,-1.30
2023-02-06T15:42:39.074Z,-1.27
2023-02-06T15:47:42.466Z,-1.32
2023-02-06T15:52:47.378Z,-1.30
2023-02-06T15:57:49.994Z,-1.35
2023-02-06T16:02:54.946Z,-1.40
2023-02-06T16:07:57.062Z,-1.44
2023-02-06T16:13:01.828Z,-1.44
2023-02-06T16:18:24.813Z,-1.45
2023-02-06T16:23:29.454Z,-1.45
2023-02-06T16:28:31.479Z,-1.51
2023-02-06T16:33:36.057Z,-1.56
2023-02-06T16:38:37.675Z,-1.57
2023-02-06T16:43:39.353Z,-1.59
2023-02-06T16:48:41.242Z,-1.62
2023-02-06T16:53:44.232Z,-1.76
2023-02-06T16:58:46.868Z,-1.68
2023-02-06T17:03:51.264Z,-1.67
2023-02-06T17:08:55.839Z,-1.71
2023-02-06T17:13:57.572Z,-1.74
2023-02-06T17:18:59.687Z,-1.80
2023-02-06T17:24:01.977Z,-1.85
2023-02-06T17:29:04.021Z,-1.88
2023-02-06T17:34:05.878Z,-1.95
2023-02-06T17:39:07.848Z,-1.91
2023-02-06T17:44:11.787Z,-1.93
2023-02-06T17:49:14.807Z,-1.97
2023-02-06T17:54:16.743Z,-2.01
2023-02-06T17:59:18.421Z,-2.05
2023-02-06T18:04:21.459Z,-2.00
2023-02-06T18:09:23.221Z,-1.99
2023-02-06T18:14:25.238Z,-2.11
2023-02-06T18:19:29.113Z,-2.14
2023-02-06T18:24:31.387Z,-2.40
2023-02-06T18:29:48.452Z,-2.36
2023-02-06T18:34:52.269Z,-2.38
2023-02-06T18:39:58.139Z,-2.29
2023-02-06T18:45:02.118Z,-2.33
2023-02-06T18:50:06.750Z,-2.34
2023-02-06T18:55:09.470Z,-2.43
2023-02-06T19:00:14.712Z,-2.33
2023-02-06T19:05:17.562Z,-2.39
2023-02-06T19:10:21.117Z,-2.40
2023-02-06T19:15:23.680Z,-2.55
2023-02-06T19:20:26.112Z,-2.52
2023-02-06T19:25:28.580Z,-2.62
2023-02-06T19:30:31.030Z,-2.60
2023-02-06T19:35:33.681Z,-2.59
2023-02-06T19:40:37.217Z,-2.76
2023-02-06T19:45:40.228Z,-2.64
2023-02-06T19:50:43.966Z,-2.84
2023-02-06T19:55:49.720Z,-2.89
2023-02-06T20:00:55.099Z,-2.93
2023-02-06T20:06:01.772Z,-2.69
2023-02-06T20:11:08.710Z,-2.84
2023-02-06T20:16:20.205Z,-2.94
2023-02-06T20:21:31.563Z,-2.91
2023-02-06T20:26:38.146Z,-3.05
2023-02-06T20:31:42.223Z,-2.97
2023-02-06T20:36:45.361Z,-2.91
2023-02-06T20:41:49.609Z,-3.11
2023-02-06T20:46:51.699Z,-3.23
2023-02-06T20:51:54.568Z,-3.20
2023-02-06T20:56:56.807Z,-3.21
2023-02-06T21:01:59.225Z,-3.22
2023-02-06T21:07:01.205Z,-3.28
2023-02-06T21:12:03.261Z,-3.18
2023-02-06T21:17:05.044Z,-3.35
2023-02-06T21:22:06.796Z,-3.34
2023-02-06T21:27:08.652Z,-3.33
2023-02-06T21:32:13.885Z,-3.42
2023-02-06T21:37:16.116Z,-3.49
2023-02-06T21:42:20.578Z,-3.43
2023-02-06T21:47:22.221Z,-3.48
2023-02-06T21:52:23.907Z,-3.59
2023-02-06T21:57:26.615Z,-3.53
2023-02-06T22:02:28.354Z,-3.61
2023-02-06T22:07:30.088Z,-3.72
2023-02-06T22:12:32.099Z,-3.80
2023-02-06T22:17:34.794Z,-3.80
2023-02-06T22:22:37.481Z,-3.74
2023-02-06T22:27:39.600Z,-3.62
2023-02-06T22:32:41.279Z,-3.58
2023-02-06T22:37:44.574Z,-3.72
2023-02-06T22:42:46.318Z,-3.54
2023-02-06T22:47:48.039Z,-3.64
2023-02-06T22:53:08.168Z,-3.72
2023-02-06T22:58:09.809Z,-3.76
2023-02-06T23:03:11.460Z,-3.81
2023-02-06T23:08:13.119Z,-3.86
2023-02-06T23:13:14.832Z,-3.72
2023-02-06T23:18:17.137Z,-3.78
2023-02-06T23:23:18.738Z,-3.95
2023-02-06T23:28:21.919Z,-4.05
2023-02-06T23:33:23.933Z,-4.10
2023-02-06T23:38:25.588Z,-4.02
2023-02-06T23:43:27.234Z,-3.80
2023-02-06T23:48:28.949Z,-3.90
2023-02-06T23:53:30.921Z,-3.71
2023-02-06T23:58:32.556Z,-3.78
